Time;durP1;ratioP1;P1;durP2;ratioP2;P2;SDS_P1;SDS_P2;PMS_P1;PMS_P2;Temp;Humidity;BMP_temperature;BMP_pressure;BME280_temperature;BME280_humidity;BME280_pressure;Samples;Min_cycle;Max_cycle;Signal;HPM_P1;HPM_P2
2024/02/06 00:02:44;;;;;;;11.50;4.70;;;;;;;9.33;100.00;101388.13;4771881;30;20079;-67
2024/02/06 00:05:32;;;;;;;12.88;5.03;;;;;;;9.31;100.00;101384.84;4770031;30;20628;-67
2024/02/06 00:08:20;;;;;;;12.38;4.78;;;;;;;9.33;100.00;101388.13;4770272;30;20055;-67
2024/02/06 00:11:08;;;;;;;10.43;4.93;;;;;;;9.35;100.00;101372.38;4771227;30;20078;-68
2024/02/06 00:13:57;;;;;;;10.88;4.78;;;;;;;9.33;100.00;101385.41;4762800;30;20147;-67
2024/02/06 00:16:46;;;;;;;7.38;4.13;;;;;;;9.32;100.00;101375.59;4757964;30;20040;-68
2024/02/06 00:19:34;;;;;;;10.80;4.75;;;;;;;9.29;100.00;101373.38;4771425;29;20055;-68
2024/02/06 00:22:22;;;;;;;10.55;4.63;;;;;;;9.27;100.00;101371.97;4771172;30;20398;-67
2024/02/06 00:25:10;;;;;;;13.40;4.88;;;;;;;9.27;100.00;101370.06;4770724;30;20086;-67
2024/02/06 00:27:59;;;;;;;9.02;4.45;;;;;;;9.30;100.00;101366.03;4769977;30;20051;-67
2024/02/06 00:30:48;;;;;;;10.27;4.32;;;;;;;9.32;100.00;101353.03;4771050;30;20144;-66
2024/02/06 00:33:36;;;;;;;11.88;4.63;;;;;;;9.38;100.00;101352.88;4759318;30;20044;-67
2024/02/06 00:36:24;;;;;;;11.93;4.57;;;;;;;9.31;100.00;101349.47;4770665;30;20081;-67
2024/02/06 00:39:12;;;;;;;10.50;4.28;;;;;;;9.30;100.00;101345.09;4769503;30;20127;-67
2024/02/06 00:42:00;;;;;;;12.55;4.85;;;;;;;9.29;100.00;101338.03;4771055;30;20100;-68
2024/02/06 00:44:48;;;;;;;10.43;4.25;;;;;;;9.33;100.00;101339.19;4770291;30;20079;-68
2024/02/06 00:47:36;;;;;;;12.95;4.32;;;;;;;9.37;100.00;101336.78;4769213;30;20058;-67
2024/02/06 00:50:24;;;;;;;13.38;4.72;;;;;;;9.33;100.00;101328.31;4758215;30;20072;-66
2024/02/06 00:53:12;;;;;;;14.52;4.40;;;;;;;9.32;100.00;101337.53;4757227;30;20058;-67
2024/02/06 00:56:05;;;;;;;13.38;4.57;;;;;;;9.29;100.00;101332.59;4768749;30;20059;-67
2024/02/06 00:58:53;;;;;;;8.95;4.60;;;;;;;9.31;100.00;101325.00;4756596;30;20079;-66
2024/02/06 01:01:41;;;;;;;14.20;4.55;;;;;;;9.31;100.00;101319.56;4770047;30;20060;-67
2024/02/06 01:04:29;;;;;;;12.27;5.07;;;;;;;9.30;100.00;101323.34;4766817;30;20505;-67
2024/02/06 01:07:20;;;;;;;13.40;4.60;;;;;;;9.35;100.00;101317.97;4769097;30;20051;-67
2024/02/06 01:10:09;;;;;;;9.13;4.50;;;;;;;9.37;100.00;101317.75;4751582;30;20521;-68
2024/02/06 01:12:57;;;;;;;13.25;4.20;;;;;;;9.41;100.00;101304.50;4756802;30;20079;-67
2024/02/06 01:15:45;;;;;;;14.85;4.70;;;;;;;9.41;100.00;101301.78;4753506;30;20048;-68
2024/02/06 01:18:33;;;;;;;10.18;3.88;;;;;;;9.44;100.00;101304.81;4752984;30;20058;-67
2024/02/06 01:21:21;;;;;;;13.18;4.05;;;;;;;9.44;100.00;101304.00;4752064;30;20502;-67
2024/02/06 01:24:09;;;;;;;10.25;4.20;;;;;;;9.39;100.00;101302.00;4765451;30;20055;-67
2024/02/06 01:26:59;;;;;;;16.67;4.70;;;;;;;9.42;100.00;101306.13;4756468;30;20059;-67
2024/02/06 01:29:49;;;;;;;15.35;4.47;;;;;;;9.44;100.00;101293.09;4769423;30;20048;-66
2024/02/06 01:32:37;;;;;;;13.27;3.60;;;;;;;9.46;100.00;101286.34;4770535;30;20051;-70
2024/02/06 01:35:25;;;;;;;10.90;4.07;;;;;;;9.45;100.00;101292.03;4758565;30;20056;-67
2024/02/06 01:38:13;;;;;;;11.75;3.85;;;;;;;9.42;100.00;101277.03;4770073;30;20063;-68
2024/02/06 01:41:01;;;;;;;11.95;4.15;;;;;;;9.38;100.00;101273.19;4750835;30;20059;-68
2024/02/06 01:43:49;;;;;;;10.77;3.63;;;;;;;9.39;100.00;101264.75;4766883;30;20056;-68
2024/02/06 01:46:37;;;;;;;12.43;4.05;;;;;;;9.42;100.00;101270.78;4770400;30;20048;-68
2024/02/06 01:49:26;;;;;;;11.75;4.07;;;;;;;9.42;100.00;101276.22;4767269;30;20057;-68
2024/02/06 01:52:14;;;;;;;14.93;4.80;;;;;;;9.43;100.00;101278.69;4768440;30;20083;-67
2024/02/06 01:55:03;;;;;;;10.07;4.07;;;;;;;9.44;100.00;101264.00;4769776;30;20521;-66
2024/02/06 01:57:52;;;;;;;15.63;4.85;;;;;;;9.41;100.00;101271.84;4756616;30;20105;-67
2024/02/06 02:00:41;;;;;;;11.38;3.70;;;;;;;9.41;100.00;101267.22;4752128;30;20052;-68
2024/02/06 02:03:31;;;;;;;19.02;4.70;;;;;;;9.42;100.00;101271.59;4767805;30;20051;-67
2024/02/06 02:06:19;;;;;;;8.93;3.33;;;;;;;9.44;100.00;101263.19;4768819;30;20113;-68
2024/02/06 02:09:08;;;;;;;13.60;3.97;;;;;;;9.43;100.00;101262.38;4768370;30;20091;-67
2024/02/06 02:11:57;;;;;;;15.07;4.63;;;;;;;9.44;100.00;101258.56;4768169;30;20048;-67
2024/02/06 02:14:45;;;;;;;17.23;4.28;;;;;;;9.47;100.00;101262.69;4755167;30;20130;-62
2024/02/06 02:17:33;;;;;;;12.68;4.55;;;;;;;9.50;100.00;101267.63;4783574;30;20043;-65
2024/02/06 02:20:21;;;;;;;13.88;3.80;;;;;;;9.48;100.00;101253.47;4775788;30;20063;-66
2024/02/06 02:23:09;;;;;;;12.35;4.07;;;;;;;9.53;100.00;101256.25;4770126;30;20047;-66
2024/02/06 02:26:11;;;;;;;12.23;3.83;;;;;;;9.54;100.00;101249.72;4780816;30;20052;-66
2024/02/06 02:29:00;;;;;;;11.15;3.50;;;;;;;9.59;100.00;101241.63;4772245;30;20083;-68
2024/02/06 02:31:48;;;;;;;13.00;3.78;;;;;;;9.52;100.00;101260.03;4756980;30;20059;-67
2024/02/06 02:34:36;;;;;;;14.75;3.60;;;;;;;9.51;100.00;101236.63;4768479;30;20056;-67
2024/02/06 02:37:24;;;;;;;13.45;3.88;;;;;;;9.50;100.00;101243.13;4768139;30;20101;-68
2024/02/06 02:40:13;;;;;;;11.95;3.85;;;;;;;9.52;100.00;101232.84;4768347;30;20660;-68
2024/02/06 02:43:01;;;;;;;13.00;4.25;;;;;;;9.53;100.00;101229.88;4764252;30;20502;-68
2024/02/06 02:45:49;;;;;;;12.18;3.90;;;;;;;9.51;100.00;101229.28;4768841;29;20067;-67
2024/02/06 02:48:36;;;;;;;14.90;4.10;;;;;;;9.49;100.00;101227.91;4768572;30;20118;-68
2024/02/06 02:51:25;;;;;;;14.45;4.80;;;;;;;9.49;100.00;101217.03;4750771;30;20056;-68
2024/02/06 02:54:15;;;;;;;12.38;4.10;;;;;;;9.48;100.00;101218.09;4755855;30;20477;-68
2024/02/06 02:57:03;;;;;;;12.48;4.20;;;;;;;9.49;100.00;101217.03;4769962;29;20055;-68
2024/02/06 02:59:51;;;;;;;12.70;4.03;;;;;;;9.49;100.00;101200.69;4768374;30;20052;-68
2024/02/06 03:02:39;;;;;;;12.65;4.00;;;;;;;9.52;100.00;101200.19;4772203;30;20185;-68
2024/02/06 03:05:27;;;;;;;10.68;3.90;;;;;;;9.50;100.00;101192.31;4770094;30;20131;-67
2024/02/06 03:08:15;;;;;;;17.70;4.88;;;;;;;9.48;100.00;101196.34;4771476;30;20490;-68
2024/02/06 03:11:03;;;;;;;10.20;3.35;;;;;;;9.54;100.00;101187.16;4771935;30;20494;-68
2024/02/06 03:13:51;;;;;;;10.80;4.07;;;;;;;9.50;100.00;101177.84;4759152;30;20129;-68
2024/02/06 03:16:39;;;;;;;12.27;4.18;;;;;;;9.46;100.00;101184.88;4760022;30;20520;-68
2024/02/06 03:19:27;;;;;;;12.88;3.90;;;;;;;9.47;100.00;101171.03;4771194;30;20138;-68
2024/02/06 03:22:15;;;;;;;11.40;3.85;;;;;;;9.46;100.00;101174.81;4752796;30;20098;-68
2024/02/06 03:25:04;;;;;;;12.18;4.15;;;;;;;9.45;100.00;101167.72;4753685;30;20523;-68
2024/02/06 03:27:52;;;;;;;14.40;4.57;;;;;;;9.49;100.00;101187.09;4765405;30;20075;-68
2024/02/06 03:30:41;;;;;;;13.95;4.18;;;;;;;9.47;100.00;101171.03;4750601;30;20051;-68
2024/02/06 03:33:29;;;;;;;13.27;4.13;;;;;;;9.47;100.00;101173.75;4753631;30;20060;-68
2024/02/06 03:36:17;;;;;;;13.02;4.20;;;;;;;9.49;100.00;101168.06;4737161;30;20055;-67
2024/02/06 03:39:06;;;;;;;12.45;4.38;;;;;;;9.47;100.00;101183.81;4735936;30;20061;-68
2024/02/06 03:41:54;;;;;;;11.40;3.92;;;;;;;9.48;100.00;101171.88;4744908;30;20573;-68
2024/02/06 03:44:42;;;;;;;16.13;4.30;;;;;;;9.48;100.00;101172.69;4753678;30;20056;-68
2024/02/06 03:47:30;;;;;;;10.50;3.83;;;;;;;9.50;100.00;101158.81;4754173;30;20056;-68
2024/02/06 03:50:18;;;;;;;11.48;4.05;;;;;;;9.51;100.00;101152.31;4765272;30;20422;-67
2024/02/06 03:53:07;;;;;;;11.55;3.90;;;;;;;9.48;100.00;101152.81;4752421;30;20419;-67
2024/02/06 03:55:55;;;;;;;15.48;4.30;;;;;;;9.47;100.00;101159.31;4753606;30;20139;-67
2024/02/06 03:58:44;;;;;;;11.65;4.20;;;;;;;9.54;100.00;101155.34;4752521;30;20095;-67
2024/02/06 04:01:32;;;;;;;9.60;3.75;;;;;;;9.54;100.00;101143.63;4765316;30;20060;-67
2024/02/06 04:04:20;;;;;;;9.15;3.50;;;;;;;9.52;100.00;101152.03;4753006;30;20060;-67
2024/02/06 04:07:08;;;;;;;11.98;4.20;;;;;;;9.53;100.00;101150.16;4753181;30;20056;-67
2024/02/06 04:09:56;;;;;;;11.52;3.67;;;;;;;9.54;100.00;101149.06;4752295;30;20131;-67
2024/02/06 04:12:44;;;;;;;10.30;3.90;;;;;;;9.52;100.00;101159.38;4749369;30;20061;-67
2024/02/06 04:15:32;;;;;;;12.20;4.30;;;;;;;9.52;100.00;101137.63;4735747;30;20056;-67
2024/02/06 04:18:20;;;;;;;12.88;4.15;;;;;;;9.52;100.00;101151.22;4747229;30;20131;-68
2024/02/06 04:21:09;;;;;;;13.57;4.00;;;;;;;9.50;100.00;101150.66;4767742;30;20072;-67
2024/02/06 04:23:57;;;;;;;9.57;3.85;;;;;;;9.50;100.00;101142.50;4770253;30;20078;-66
2024/02/06 04:26:45;;;;;;;10.98;3.90;;;;;;;9.54;100.00;101138.19;4770835;30;20113;-67
2024/02/06 04:29:34;;;;;;;12.05;3.95;;;;;;;9.52;100.00;101129.47;4770239;30;20532;-67
2024/02/06 04:32:22;;;;;;;14.88;4.57;;;;;;;9.51;100.00;101133.28;4770138;30;20055;-67
2024/02/06 04:35:10;;;;;;;13.80;4.00;;;;;;;9.54;100.00;101135.47;4771439;30;20063;-68
2024/02/06 04:37:58;;;;;;;15.38;4.35;;;;;;;9.54;100.00;101135.47;4770268;30;20058;-66
2024/02/06 04:40:46;;;;;;;13.07;4.45;;;;;;;9.55;100.00;101134.41;4770252;30;20427;-66
2024/02/06 04:43:34;;;;;;;12.43;4.35;;;;;;;9.55;100.00;101123.53;4771381;30;20051;-67
2024/02/06 04:46:22;;;;;;;12.55;4.15;;;;;;;9.54;100.00;101128.13;4771463;30;20066;-67
2024/02/06 04:49:11;;;;;;;14.38;3.85;;;;;;;9.53;100.00;101120.25;4771589;30;20064;-68
2024/02/06 04:51:59;;;;;;;9.88;3.60;;;;;;;9.53;100.00;101125.69;4769942;30;20117;-67
2024/02/06 04:54:47;;;;;;;13.38;4.20;;;;;;;9.53;100.00;101122.97;4769715;30;20051;-67
2024/02/06 04:57:35;;;;;;;13.57;4.18;;;;;;;9.55;100.00;101112.66;4769581;30;20052;-67
2024/02/06 05:00:23;;;;;;;13.48;4.18;;;;;;;9.54;100.00;101125.41;4770254;29;20142;-67
2024/02/06 05:03:11;;;;;;;15.30;4.32;;;;;;;9.52;100.00;101122.13;4770510;29;20070;-66
2024/02/06 05:05:59;;;;;;;16.38;4.60;;;;;;;9.56;100.00;101106.94;4752747;30;20433;-67
2024/02/06 05:08:47;;;;;;;20.00;4.35;;;;;;;9.53;100.00;101109.38;4752390;30;20132;-69
2024/02/06 05:11:35;;;;;;;13.63;4.03;;;;;;;9.53;100.00;101099.31;4755401;30;20517;-68
2024/02/06 05:14:25;;;;;;;22.15;5.05;;;;;;;9.53;100.00;101099.31;4756413;30;20201;-68
2024/02/06 05:17:13;;;;;;;16.77;4.22;;;;;;;9.54;100.00;101094.69;4769181;30;20062;-67
2024/02/06 05:20:01;;;;;;;12.63;3.80;;;;;;;9.52;100.00;101096.81;4770013;30;20063;-67
2024/02/06 05:22:49;;;;;;;15.30;4.40;;;;;;;9.51;100.00;101090.56;4767477;30;20060;-67
2024/02/06 05:25:37;;;;;;;15.95;4.72;;;;;;;9.52;100.00;101085.94;4755907;30;20108;-67
2024/02/06 05:28:25;;;;;;;14.75;4.43;;;;;;;9.51;100.00;101079.69;4770911;30;20520;-67
2024/02/06 05:31:13;;;;;;;11.30;3.60;;;;;;;9.54;100.00;101078.34;4757601;30;20532;-67
2024/02/06 05:34:01;;;;;;;13.00;4.20;;;;;;;9.56;100.00;101092.53;4768297;30;20082;-67
2024/02/06 05:36:50;;;;;;;17.73;4.80;;;;;;;9.55;100.00;101080.00;4757789;30;20421;-67
2024/02/06 05:39:37;;;;;;;10.73;4.10;;;;;;;9.55;100.00;101082.75;4768796;30;20514;-68
2024/02/06 05:42:28;;;;;;;13.63;4.68;;;;;;;9.52;100.00;101081.31;4760505;30;20048;-67
2024/02/06 05:45:16;;;;;;;14.73;5.03;;;;;;;9.50;100.00;101072.63;4768420;30;20090;-67
2024/02/06 05:48:04;;;;;;;13.07;4.40;;;;;;;9.49;100.00;101070.97;4768832;30;20062;-67
2024/02/06 05:50:52;;;;;;;13.50;4.00;;;;;;;9.50;100.00;101082.66;4769513;30;20170;-67
2024/02/06 05:53:40;;;;;;;13.60;4.35;;;;;;;9.55;100.00;101069.13;4770017;30;20052;-68
2024/02/06 05:56:28;;;;;;;13.10;4.35;;;;;;;9.51;100.00;101076.16;4769197;30;20062;-67
2024/02/06 05:59:16;;;;;;;9.57;3.97;;;;;;;9.50;100.00;101069.91;4765881;30;20130;-67
2024/02/06 06:02:04;;;;;;;14.63;4.35;;;;;;;9.49;100.00;101075.59;4767492;30;20624;-67
2024/02/06 06:04:53;;;;;;;11.40;4.45;;;;;;;9.49;100.00;101067.41;4757095;30;20063;-67
2024/02/06 06:07:41;;;;;;;12.23;5.00;;;;;;;9.48;100.00;101063.88;4769541;30;20525;-67
2024/02/06 06:10:29;;;;;;;16.25;4.70;;;;;;;9.47;100.00;101061.41;4755966;30;20510;-67
2024/02/06 06:13:17;;;;;;;9.68;3.92;;;;;;;9.50;100.00;101060.88;4765451;30;20066;-68
2024/02/06 06:16:05;;;;;;;13.27;4.65;;;;;;;9.47;100.00;101062.22;4768295;30;20136;-67
2024/02/06 06:18:54;;;;;;;18.17;4.82;;;;;;;9.48;100.00;101046.75;4756010;30;20244;-67
2024/02/06 06:21:42;;;;;;;11.52;3.90;;;;;;;9.48;100.00;101044.03;4770436;30;20152;-68
2024/02/06 06:24:31;;;;;;;13.98;4.20;;;;;;;9.56;100.00;101038.13;4772409;30;20092;-67
2024/02/06 06:27:19;;;;;;;14.43;4.30;;;;;;;9.56;100.00;101051.72;4782489;30;20063;-66
2024/02/06 06:30:07;;;;;;;12.15;3.88;;;;;;;9.60;100.00;101050.16;4779280;30;20066;-67
2024/02/06 06:32:55;;;;;;;13.35;4.40;;;;;;;9.64;100.00;101045.00;4782842;30;20115;-68
2024/02/06 06:35:43;;;;;;;15.27;5.05;;;;;;;9.57;100.00;101045.19;4772251;30;20051;-63
2024/02/06 06:38:31;;;;;;;16.95;4.50;;;;;;;9.60;100.00;101034.63;4791982;30;20059;-66
2024/02/06 06:41:22;;;;;;;18.45;5.05;;;;;;;9.55;100.00;101034.59;4785737;30;20048;-67
2024/02/06 06:44:10;;;;;;;16.92;4.53;;;;;;;9.56;100.00;101057.16;4769515;30;20131;-68
2024/02/06 06:46:58;;;;;;;14.52;4.60;;;;;;;9.54;100.00;101045.72;4772131;30;20127;-67
2024/02/06 06:49:46;;;;;;;15.57;4.93;;;;;;;9.52;100.00;101047.88;4772132;30;20056;-68
2024/02/06 06:52:34;;;;;;;17.88;4.82;;;;;;;9.52;100.00;101040.53;4771029;30;20174;-68
2024/02/06 06:55:22;;;;;;;16.05;4.68;;;;;;;9.55;100.00;101031.88;4770507;29;20418;-67
2024/02/06 06:58:10;;;;;;;19.77;4.72;;;;;;;9.55;100.00;101028.34;4772676;30;20494;-68
2024/02/06 07:00:58;;;;;;;16.98;5.10;;;;;;;9.55;100.00;101009.28;4777780;30;20500;-68
2024/02/06 07:03:47;;;;;;;15.07;4.90;;;;;;;9.64;100.00;101013.16;4789362;30;20130;-69
2024/02/06 07:06:35;;;;;;;13.15;5.00;;;;;;;9.70;100.00;101017.59;4757522;30;20658;-69
2024/02/06 07:09:26;;;;;;;14.85;5.03;;;;;;;9.64;100.00;101018.59;4110787;30;9999950;-67
2024/02/06 07:12:14;;;;;;;16.60;5.45;;;;;;;9.65;100.00;101014.81;4767628;30;20502;-67
2024/02/06 07:15:03;;;;;;;19.58;5.25;;;;;;;9.57;100.00;101007.09;4778494;30;20115;-67
2024/02/06 07:17:52;;;;;;;11.18;4.20;;;;;;;9.58;100.00;101008.78;4768865;30;20140;-66
2024/02/06 07:20:40;;;;;;;19.27;4.90;;;;;;;9.57;100.00;101007.09;4768116;30;20417;-66
2024/02/06 07:23:28;;;;;;;20.30;5.07;;;;;;;9.63;100.00;101013.44;4767227;30;20071;-67
2024/02/06 07:26:16;;;;;;;15.70;4.43;;;;;;;9.61;100.00;101005.53;4755265;30;20067;-70
2024/02/06 07:29:04;;;;;;;14.93;4.35;;;;;;;9.66;100.00;101013.75;4768541;30;20055;-68
2024/02/06 07:31:52;;;;;;;19.27;4.95;;;;;;;9.65;100.00;101016.72;4767425;30;20060;-67
2024/02/06 07:34:40;;;;;;;18.63;4.70;;;;;;;9.66;100.00;101016.47;4766014;30;20060;-68
2024/02/06 07:37:28;;;;;;;17.55;4.88;;;;;;;9.62;100.00;101014.50;4762186;30;20136;-68
2024/02/06 07:40:16;;;;;;;15.48;4.78;;;;;;;9.61;100.00;101008.25;4750211;30;20066;-68
2024/02/06 07:43:04;;;;;;;19.30;5.05;;;;;;;9.69;100.00;101018.69;4751000;30;20434;-68
2024/02/06 07:45:53;;;;;;;13.43;4.65;;;;;;;9.66;100.00;101008.28;4762260;29;20116;-68
2024/02/06 07:48:42;;;;;;;14.65;4.43;;;;;;;9.75;100.00;101000.50;4767972;30;20457;-67
2024/02/06 07:51:30;;;;;;;13.10;4.90;;;;;;;9.67;100.00;101015.41;4769656;30;20651;-68
2024/02/06 07:54:18;;;;;;;14.27;4.88;;;;;;;9.67;100.00;101006.38;4768903;30;20063;-69
2024/02/06 07:57:06;;;;;;;21.45;5.35;;;;;;;9.58;100.00;101001.44;4753439;30;20183;-67
2024/02/06 07:59:54;;;;;;;16.60;5.07;;;;;;;9.54;100.00;101010.34;4765929;30;20055;-67
2024/02/06 08:02:42;;;;;;;17.38;5.07;;;;;;;9.52;100.00;100998.91;4769842;30;20192;-67
2024/02/06 08:05:31;;;;;;;18.80;5.00;;;;;;;9.53;100.00;101001.38;4771198;29;20097;-67
2024/02/06 08:08:19;;;;;;;16.20;4.05;;;;;;;9.63;100.00;101005.28;4770911;30;20048;-67
2024/02/06 08:11:08;;;;;;;16.20;4.95;;;;;;;9.66;100.00;100989.25;4771026;30;20055;-66
2024/02/06 08:13:55;;;;;;;20.40;5.22;;;;;;;9.70;100.00;100990.38;4770313;30;20063;-66
2024/02/06 08:16:44;;;;;;;14.85;4.93;;;;;;;9.72;100.00;100982.78;4771631;30;20052;-67
2024/02/06 08:19:33;;;;;;;13.65;4.15;;;;;;;9.73;100.00;100991.78;4765264;30;20060;-67
2024/02/06 08:22:21;;;;;;;14.70;3.88;;;;;;;9.74;100.00;100991.53;4754126;30;20077;-67
2024/02/06 08:25:09;;;;;;;16.40;5.60;;;;;;;9.74;100.00;100986.09;4770564;30;20048;-66
2024/02/06 08:27:58;;;;;;;22.13;5.00;;;;;;;9.78;100.00;100998.06;4765799;30;20056;-67
2024/02/06 08:30:49;;;;;;;21.75;4.30;;;;;;;9.77;100.00;100993.72;4754335;30;20059;-67
2024/02/06 08:33:37;;;;;;;16.70;4.60;;;;;;;9.80;100.00;100987.75;4752758;30;20112;-66
2024/02/06 08:36:26;;;;;;;18.45;4.78;;;;;;;9.86;100.00;100976.91;4755340;30;20049;-67
2024/02/06 08:39:15;;;;;;;14.48;4.22;;;;;;;9.86;100.00;100979.63;4770122;30;20063;-67
2024/02/06 08:42:04;;;;;;;15.80;4.70;;;;;;;9.85;100.00;100983.44;4779571;30;20087;-68
2024/02/06 08:44:52;;;;;;;12.35;4.18;;;;;;;9.87;100.00;100973.13;4769133;30;20039;-68
2024/02/06 08:47:40;;;;;;;22.33;4.93;;;;;;;9.93;100.00;100966.63;4773412;30;20059;-68
2024/02/06 08:50:28;;;;;;;19.65;4.57;;;;;;;9.95;100.00;100959.03;4752989;30;20093;-67
2024/02/06 08:53:17;;;;;;;18.00;4.65;;;;;;;10.08;100.00;100964.03;4764160;30;20498;-67
2024/02/06 08:56:05;;;;;;;19.10;4.95;;;;;;;10.01;100.00;100971.59;4757087;30;20075;-68
2024/02/06 08:58:53;;;;;;;15.43;4.28;;;;;;;10.01;100.00;100974.31;4753980;30;20056;-67
2024/02/06 09:01:42;;;;;;;18.58;4.50;;;;;;;10.00;100.00;100969.94;4769951;30;20446;-67
2024/02/06 09:04:30;;;;;;;14.98;3.83;;;;;;;10.02;100.00;100967.78;4769772;30;20052;-65
2024/02/06 09:07:21;;;;;;;12.55;4.20;;;;;;;10.04;100.00;100973.78;4769673;30;20063;-67
2024/02/06 09:10:09;;;;;;;16.27;4.03;;;;;;;10.08;100.00;100968.63;4770715;30;20059;-67
2024/02/06 09:12:57;;;;;;;13.60;4.28;;;;;;;10.04;100.00;100979.25;4770742;30;20137;-67
2024/02/06 09:15:47;;;;;;;13.88;4.25;;;;;;;9.95;100.00;100975.34;4770703;30;20051;-69
2024/02/06 09:18:35;;;;;;;15.52;4.03;;;;;;;9.96;100.00;100977.00;4768222;30;20101;-67
2024/02/06 09:21:23;;;;;;;16.85;4.47;;;;;;;10.02;100.00;100962.34;4769423;30;20099;-68
2024/02/06 09:24:11;;;;;;;12.43;4.15;;;;;;;9.97;100.00;100962.31;4769897;30;20044;-68
2024/02/06 09:26:59;;;;;;;17.65;4.68;;;;;;;9.94;100.00;100962.84;4769831;30;20413;-67
2024/02/06 09:29:47;;;;;;;12.15;4.30;;;;;;;9.91;100.00;100966.91;4766620;30;20047;-68
2024/02/06 09:32:35;;;;;;;13.05;4.10;;;;;;;9.90;100.00;100956.25;4769226;30;20517;-67
2024/02/06 09:35:24;;;;;;;14.13;4.95;;;;;;;10.00;100.00;100961.78;4767727;30;20547;-67
2024/02/06 09:38:12;;;;;;;15.57;4.75;;;;;;;9.92;100.00;100959.56;4767901;30;20052;-67
2024/02/06 09:41:00;;;;;;;12.07;3.95;;;;;;;9.89;100.00;100955.44;4768277;30;20108;-68
2024/02/06 09:43:49;;;;;;;18.30;5.05;;;;;;;9.93;100.00;100956.56;4772587;30;20055;-67
2024/02/06 09:46:37;;;;;;;18.83;4.88;;;;;;;9.96;100.00;100949.78;4768084;30;20501;-68
2024/02/06 09:49:25;;;;;;;13.68;3.92;;;;;;;9.96;100.00;100939.72;4768602;30;20055;-67
2024/02/06 09:52:17;;;;;;;21.63;5.65;;;;;;;9.95;100.00;100931.81;4769906;30;20052;-67
2024/02/06 09:55:09;;;;;;;18.13;4.82;;;;;;;9.97;100.00;100924.19;4746830;30;20409;-67
2024/02/06 09:57:58;;;;;;;16.25;5.90;;;;;;;9.98;100.00;100931.28;4756296;30;20055;-67
2024/02/06 10:00:46;;;;;;;13.43;4.43;;;;;;;10.03;100.00;100934.88;4764571;30;20048;-68
2024/02/06 10:03:34;;;;;;;15.70;5.15;;;;;;;10.07;100.00;100920.72;4763822;30;20058;-68
2024/02/06 10:06:23;;;;;;;17.48;4.57;;;;;;;10.08;100.00;100916.91;4769335;30;20059;-67
2024/02/06 10:09:17;;;;;;;15.85;4.28;;;;;;;10.10;100.00;100918.31;4762576;30;20056;-67
2024/02/06 10:12:05;;;;;;;26.45;5.63;;;;;;;10.10;100.00;100918.31;4769896;30;20052;-66
2024/02/06 10:14:53;;;;;;;17.02;4.78;;;;;;;10.07;100.00;100904.41;4775072;30;20497;-67
2024/02/06 10:17:41;;;;;;;17.63;4.70;;;;;;;10.05;100.00;100914.72;4758264;30;20055;-67
2024/02/06 10:20:39;;;;;;;22.35;5.35;;;;;;;9.96;100.00;100898.06;4779954;30;20039;-66
2024/02/06 10:23:27;;;;;;;19.67;5.53;;;;;;;9.92;100.00;100894.22;4792222;30;20070;-67
2024/02/06 10:26:19;;;;;;;21.63;6.35;;;;;;;9.91;100.00;100903.47;4772767;30;20044;-67
2024/02/06 10:29:11;;;;;;;20.08;5.80;;;;;;;9.89;100.00;100901.00;4774374;30;20059;-65
2024/02/06 10:31:59;;;;;;;14.65;4.25;;;;;;;9.97;100.00;100902.44;4763002;30;20155;-66
2024/02/06 10:34:47;;;;;;;14.40;3.88;;;;;;;10.00;100.00;100907.34;4758878;30;20494;-65
2024/02/06 10:37:36;;;;;;;21.48;6.13;;;;;;;10.02;100.00;100910.63;4783411;30;20058;-63
2024/02/06 10:40:24;;;;;;;20.58;5.25;;;;;;;10.02;100.00;100889.66;4790923;30;20101;-66
2024/02/06 10:43:13;;;;;;;15.05;5.13;;;;;;;10.09;100.00;100902.22;4786895;30;20052;-67
2024/02/06 10:46:22;;;;;;;16.27;5.35;;;;;;;10.07;100.00;100905.19;4781050;30;20058;-65
2024/02/06 10:49:10;;;;;;;17.17;4.97;;;;;;;10.03;100.00;100893.22;4771143;30;20520;-62
2024/02/06 10:52:03;;;;;;;17.13;5.05;;;;;;;10.08;100.00;100895.13;4786795;30;20055;-67
2024/02/06 10:54:52;;;;;;;17.65;5.35;;;;;;;10.15;100.00;100891.13;4764851;30;20055;-66
2024/02/06 10:57:42;;;;;;;13.52;4.60;;;;;;;10.14;100.00;100894.09;4762009;30;20058;-67
2024/02/06 11:00:33;;;;;;;10.57;4.00;;;;;;;10.27;100.00;100892.78;4778898;30;20113;-67
2024/02/06 11:03:23;;;;;;;14.65;4.15;;;;;;;10.31;100.00;100881.13;4776236;30;20130;-69
2024/02/06 11:06:27;;;;;;;13.48;4.47;;;;;;;10.28;100.00;100867.22;4777119;30;20134;-67
2024/02/06 11:09:17;;;;;;;20.60;5.25;;;;;;;10.22;100.00;100872.63;4778272;30;20052;-67
2024/02/06 11:12:07;;;;;;;14.27;4.93;;;;;;;10.22;100.00;100867.19;4772713;30;20044;-67
2024/02/06 11:14:59;;;;;;;15.40;5.32;;;;;;;10.18;100.00;100871.53;4761547;30;20063;-66
2024/02/06 11:17:48;;;;;;;15.23;4.15;;;;;;;10.21;100.00;100853.84;4774035;30;20165;-66
2024/02/06 11:20:40;;;;;;;12.63;3.65;;;;;;;10.18;100.00;100860.63;4774095;30;20090;-67
2024/02/06 11:23:30;;;;;;;15.30;4.18;;;;;;;10.12;100.00;100877.19;4769915;30;20090;-68
2024/02/06 11:26:21;;;;;;;15.50;4.57;;;;;;;10.10;100.00;100861.16;4759516;30;20059;-67
2024/02/06 11:29:09;;;;;;;11.85;4.00;;;;;;;10.12;100.00;100856.22;4754401;30;20079;-67
2024/02/06 11:31:57;;;;;;;14.02;4.90;;;;;;;10.10;100.00;100860.31;4770377;30;20055;-67
2024/02/06 11:34:52;;;;;;;10.70;3.88;;;;;;;10.07;100.00;100853.47;4754171;30;20044;-68
2024/02/06 11:37:41;;;;;;;12.10;4.37;;;;;;;10.13;100.00;100851.63;4753240;30;20514;-67
2024/02/06 11:40:31;;;;;;;14.05;4.53;;;;;;;10.10;100.00;100858.41;4753606;30;20290;-67
2024/02/06 11:43:26;;;;;;;14.60;4.22;;;;;;;10.07;100.00;100848.03;4767488;30;20074;-67
2024/02/06 11:46:14;;;;;;;13.48;4.13;;;;;;;10.09;100.00;100839.63;4772015;30;20052;-67
2024/02/06 11:49:06;;;;;;;8.05;3.97;;;;;;;10.07;100.00;100839.88;4758880;30;20474;-67
2024/02/06 11:51:55;;;;;;;10.52;4.00;;;;;;;10.01;100.00;100832.78;4758965;30;20052;-68
2024/02/06 11:54:43;;;;;;;13.18;4.55;;;;;;;10.01;100.00;100844.47;4767321;30;20134;-68
2024/02/06 11:57:31;;;;;;;21.85;4.78;;;;;;;10.00;100.00;100831.13;4771103;30;20112;-67
2024/02/06 12:00:20;;;;;;;14.18;5.15;;;;;;;10.01;100.00;100832.78;4771473;30;20365;-67
2024/02/06 12:03:08;;;;;;;15.07;4.93;;;;;;;10.02;100.00;100834.41;4771378;30;20528;-67
2024/02/06 12:05:57;;;;;;;15.32;5.05;;;;;;;10.02;100.00;100829.78;4770806;30;20055;-68
2024/02/06 12:08:45;;;;;;;11.90;4.10;;;;;;;10.09;100.00;100807.75;4771875;30;20055;-67
2024/02/06 12:11:42;;;;;;;18.02;5.30;;;;;;;10.15;100.00;100811.31;4768219;30;20051;-68
2024/02/06 12:14:30;;;;;;;19.50;5.20;;;;;;;10.13;100.00;100803.44;4751350;30;20137;-68
2024/02/06 12:17:18;;;;;;;18.10;5.07;;;;;;;10.16;100.00;100791.19;4764661;30;20105;-68
2024/02/06 12:20:07;;;;;;;16.13;5.28;;;;;;;10.15;100.00;100795.81;4770399;30;20134;-67
2024/02/06 12:22:57;;;;;;;18.25;5.30;;;;;;;10.17;100.00;100796.38;4771411;29;20060;-70
2024/02/06 12:25:48;;;;;;;15.40;4.65;;;;;;;10.23;100.00;100792.56;4757323;30;20128;-68
2024/02/06 12:28:36;;;;;;;18.63;4.82;;;;;;;10.32;100.00;100789.34;4762860;30;20048;-68
2024/02/06 12:31:25;;;;;;;22.15;4.63;;;;;;;10.36;100.00;100798.63;4754141;30;20052;-67
2024/02/06 12:34:13;;;;;;;12.23;3.65;;;;;;;10.38;100.00;100785.59;4761441;30;20052;-68
2024/02/06 12:37:02;;;;;;;21.83;5.10;;;;;;;10.38;100.00;100788.31;4769529;30;20051;-67
2024/02/06 12:40:00;;;;;;;13.60;3.65;;;;;;;10.39;100.00;100779.88;4769684;30;20047;-67
2024/02/06 12:42:49;;;;;;;16.27;5.03;;;;;;;10.37;100.00;100779.31;4757661;30;20055;-68
2024/02/06 12:45:39;;;;;;;20.20;4.95;;;;;;;10.38;100.00;100759.16;4752636;30;20467;-67
2024/02/06 12:48:27;;;;;;;14.75;4.50;;;;;;;10.45;100.00;100772.53;4753649;30;20056;-67
2024/02/06 12:51:16;;;;;;;13.52;4.20;;;;;;;10.49;100.00;100754.56;4752903;30;20141;-67
2024/02/06 12:54:04;;;;;;;13.40;4.30;;;;;;;10.50;100.00;100769.00;4769328;30;20056;-67